Terminal Aerodrome Forecast
Issued by NWS Spokane, WA

Home | Current Version | Previous Version | Text Only | Print | Product List | Glossary On
Versions: 1 2 3 4 5 6 7 8 9 10 11 12 13 14 15 16 17 18 19 20 21 22 23 24 25 26 27 28 29 30 31 32 33 34 35 36 37 38
000
FTUS46 KOTX 201208 AAA
TAFLWS
TAF AMD
KLWS 201208Z 2012/2112 26005KT 1/2SM FG BKN001 OVC090
     FM201330 12003KT 3SM -RA BR OVC008
      TEMPO 2015/2019 1/2SM -RA FG OVC007
     FM202000 15008KT 3SM -RA BR OVC010
     FM210400 20009G17KT 6SM -RA BR OVC015=

USA.gov is the U.S. government's official web portal to all federal, state and local government web resources and services.